createdAt,value
2022-11-28T00:01:25.263Z,75.88
2022-11-28T00:03:52.204Z,75.64
2022-11-28T00:06:19.483Z,75.04
2022-11-28T00:08:46.461Z,75.65
2022-11-28T00:11:15.881Z,75.37
2022-11-28T00:13:43.741Z,76.14
2022-11-28T00:16:21.519Z,75.86
2022-11-28T00:18:53.533Z,74.94
2022-11-28T00:21:20.971Z,75.19
2022-11-28T00:23:48.955Z,75.74
2022-11-28T00:26:23.496Z,75.90
2022-11-28T00:28:51.122Z,75.30
2022-11-28T00:31:27.666Z,76.37
2022-11-28T00:33:55.600Z,76.48
2022-11-28T00:36:23.462Z,77.14
2022-11-28T00:38:51.156Z,76.69
2022-11-28T00:41:23.679Z,77.49
2022-11-28T00:43:51.774Z,77.30
2022-11-28T00:46:20.514Z,77.89
2022-11-28T00:48:47.701Z,78.02
2022-11-28T00:51:19.294Z,77.73
2022-11-28T00:53:50.059Z,77.59
2022-11-28T00:56:19.787Z,76.82
2022-11-28T00:58:49.769Z,77.50
2022-11-28T01:01:23.196Z,76.21
2022-11-28T01:03:52.392Z,76.81
2022-11-28T01:06:23.997Z,77.14
2022-11-28T01:08:51.964Z,77.01
2022-11-28T01:11:19.490Z,76.67
2022-11-28T01:13:46.489Z,77.00
2022-11-28T01:16:13.588Z,76.43
2022-11-28T01:18:40.649Z,76.31
2022-11-28T01:21:07.993Z,77.04
2022-11-28T01:23:35.868Z,77.30
2022-11-28T01:26:06.765Z,77.40
2022-11-28T01:28:34.459Z,76.26
2022-11-28T01:31:09.413Z,77.02
2022-11-28T01:33:36.406Z,76.54
2022-11-28T01:36:03.482Z,77.42
2022-11-28T01:38:30.472Z,75.74
2022-11-28T01:40:57.996Z,77.30
2022-11-28T01:43:25.473Z,76.79
2022-11-28T01:45:52.708Z,77.42
2022-11-28T01:48:29.427Z,77.58
2022-11-28T01:51:00.079Z,77.52
2022-11-28T01:53:31.085Z,76.88
2022-11-28T01:56:02.400Z,77.49
2022-11-28T01:58:30.960Z,76.43
2022-11-28T02:00:58.483Z,77.17
2022-11-28T02:03:33.774Z,76.55
2022-11-28T02:06:00.948Z,77.72
2022-11-28T02:08:35.139Z,77.60
2022-11-28T02:11:29.022Z,77.60
2022-11-28T02:14:23.622Z,76.47
2022-11-28T02:16:50.476Z,77.33
2022-11-28T02:19:43.284Z,77.58
2022-11-28T02:22:34.732Z,76.87
2022-11-28T02:25:10.918Z,76.38
2022-11-28T02:28:01.391Z,76.41
2022-11-28T02:31:05.121Z,76.21
2022-11-28T02:33:55.222Z,76.15
2022-11-28T02:36:37.279Z,76.45
2022-11-28T02:39:30.230Z,76.19
2022-11-28T02:42:18.356Z,75.35
2022-11-28T02:44:59.045Z,75.56
2022-11-28T02:47:44.481Z,74.28
2022-11-28T02:50:22.115Z,75.25
2022-11-28T02:52:53.794Z,74.46
2022-11-28T02:55:21.530Z,74.57
2022-11-28T02:57:53.530Z,74.47
2022-11-28T03:00:31.593Z,74.35
2022-11-28T03:03:32.481Z,74.17
2022-11-28T03:06:19.050Z,74.76
2022-11-28T03:09:17.135Z,74.44
2022-11-28T03:12:02.468Z,75.09
2022-11-28T03:14:53.844Z,75.59
2022-11-28T03:17:56.418Z,75.84
2022-11-28T03:20:26.686Z,75.40
2022-11-28T03:23:17.397Z,74.33
2022-11-28T03:25:56.501Z,74.89
2022-11-28T03:28:43.348Z,74.55
2022-11-28T03:31:15.887Z,75.00
2022-11-28T03:33:48.670Z,74.38
2022-11-28T03:36:21.003Z,74.95
2022-11-28T03:39:04.896Z,74.94
2022-11-28T03:41:38.586Z,74.48
2022-11-28T03:44:10.890Z,74.71
2022-11-28T03:46:45.326Z,74.63
2022-11-28T03:49:15.792Z,75.25
2022-11-28T03:51:53.115Z,74.41
2022-11-28T03:54:26.076Z,75.05
2022-11-28T03:56:55.931Z,75.57
2022-11-28T03:59:33.584Z,74.45
2022-11-28T04:02:22.321Z,74.80
2022-11-28T04:04:58.787Z,74.77
2022-11-28T04:07:43.035Z,74.40
2022-11-28T04:10:27.391Z,74.83
2022-11-28T04:12:59.437Z,74.04
2022-11-28T04:15:26.241Z,74.88
2022-11-28T04:18:13.700Z,75.02
2022-11-28T04:20:59.132Z,75.40
2022-11-28T04:23:27.787Z,75.01
2022-11-28T04:26:00.664Z,74.84
2022-11-28T04:28:31.592Z,75.42
2022-11-28T04:31:02.385Z,74.56
2022-11-28T04:33:33.197Z,75.13
2022-11-28T04:36:01.736Z,74.34
2022-11-28T04:38:31.387Z,73.99
2022-11-28T04:41:15.649Z,74.72
2022-11-28T04:43:50.087Z,75.81
2022-11-28T04:46:22.408Z,75.73
2022-11-28T04:48:49.406Z,76.11
2022-11-28T04:51:25.066Z,76.17
2022-11-28T04:54:10.837Z,76.24
2022-11-28T04:56:45.671Z,75.76
2022-11-28T04:59:14.587Z,76.43
2022-11-28T05:01:44.230Z,76.02
2022-11-28T05:04:12.582Z,76.10
2022-11-28T05:06:39.614Z,75.68
2022-11-28T05:09:07.020Z,75.27
2022-11-28T05:11:33.940Z,75.10
2022-11-28T05:14:00.871Z,74.86
2022-11-28T05:16:27.951Z,75.03
2022-11-28T05:18:54.888Z,74.94
2022-11-28T05:21:21.936Z,75.21
2022-11-28T05:23:49.165Z,75.17
2022-11-28T05:26:18.757Z,75.38
2022-11-28T05:28:47.740Z,75.03
2022-11-28T05:31:15.089Z,75.70
2022-11-28T05:33:42.098Z,74.76
2022-11-28T05:36:13.161Z,76.41
2022-11-28T05:38:40.964Z,75.58
2022-11-28T05:41:08.164Z,75.39
2022-11-28T05:43:35.330Z,75.80
2022-11-28T05:46:05.479Z,75.13
2022-11-28T05:48:32.416Z,75.27
2022-11-28T05:50:59.330Z,76.04
2022-11-28T05:53:26.277Z,75.72
2022-11-28T05:55:53.172Z,75.48
2022-11-28T05:58:20.037Z,75.07
2022-11-28T06:00:47.052Z,74.80
2022-11-28T06:03:14.055Z,75.54
2022-11-28T06:05:43.999Z,74.83
2022-11-28T06:08:12.484Z,74.66
2022-11-28T06:10:39.960Z,75.11
2022-11-28T06:13:07.064Z,75.63
2022-11-28T06:15:38.007Z,75.27
2022-11-28T06:18:06.351Z,74.92
2022-11-28T06:20:35.822Z,75.45
2022-11-28T06:23:02.829Z,75.68
2022-11-28T06:25:29.842Z,76.26
2022-11-28T06:27:56.877Z,75.88
2022-11-28T06:30:23.995Z,75.31
2022-11-28T06:32:50.897Z,75.36
2022-11-28T06:35:18.002Z,74.93
2022-11-28T06:37:44.874Z,75.36
2022-11-28T06:40:11.979Z,75.16
2022-11-28T06:42:39.412Z,75.41
2022-11-28T06:45:06.940Z,75.33
2022-11-28T06:47:33.922Z,74.84
2022-11-28T06:50:00.952Z,74.90
2022-11-28T06:52:29.023Z,75.04
2022-11-28T06:54:55.917Z,74.53
2022-11-28T06:57:23.059Z,74.26
2022-11-28T06:59:50.758Z,74.14
2022-11-28T07:02:17.722Z,73.90
2022-11-28T07:04:44.687Z,75.13
2022-11-28T07:07:16.087Z,74.19
2022-11-28T07:09:44.234Z,74.26
2022-11-28T07:12:11.361Z,74.27
2022-11-28T07:14:38.425Z,74.20
2022-11-28T07:17:05.568Z,73.80
2022-11-28T07:19:32.625Z,73.25
2022-11-28T07:22:00.130Z,73.66
2022-11-28T07:24:30.161Z,73.59
2022-11-28T07:26:57.370Z,72.70
2022-11-28T07:29:24.706Z,73.38
2022-11-28T07:31:51.754Z,73.47
2022-11-28T07:34:18.670Z,73.93
2022-11-28T07:36:45.536Z,73.77
2022-11-28T07:39:16.128Z,74.12
2022-11-28T07:41:43.209Z,74.17
2022-11-28T07:44:11.379Z,73.78
2022-11-28T07:46:39.315Z,73.83
2022-11-28T07:49:06.255Z,73.41
2022-11-28T07:51:34.019Z,74.23
2022-11-28T07:54:02.127Z,73.96
2022-11-28T07:56:57.285Z,74.12
2022-11-28T07:59:19.035Z,73.42
2022-11-28T08:01:45.937Z,73.23
2022-11-28T08:04:12.872Z,73.84
2022-11-28T08:06:41.980Z,74.00
2022-11-28T08:09:09.342Z,73.79
2022-11-28T08:11:36.559Z,74.13
2022-11-28T08:14:04.463Z,74.29
2022-11-28T08:16:32.582Z,74.40
2022-11-28T08:19:03.266Z,74.75
2022-11-28T08:21:33.205Z,74.64
2022-11-28T08:24:02.036Z,74.43
2022-11-28T08:26:30.980Z,74.36
2022-11-28T08:28:59.910Z,73.54
2022-11-28T08:31:32.788Z,73.69
2022-11-28T08:34:01.544Z,73.20
2022-11-28T08:36:29.477Z,72.43
2022-11-28T08:39:16.583Z,73.26
2022-11-28T08:41:44.983Z,73.26
2022-11-28T08:44:11.875Z,72.36
2022-11-28T08:46:38.813Z,71.89
2022-11-28T08:49:05.715Z,71.85
2022-11-28T08:51:32.770Z,72.18
2022-11-28T08:54:00.330Z,71.70
2022-11-28T08:56:27.811Z,70.96
2022-11-28T08:58:55.221Z,71.31
2022-11-28T09:01:24.669Z,71.77
2022-11-28T09:03:52.703Z,71.54
2022-11-28T09:06:21.119Z,71.26
2022-11-28T09:08:49.875Z,71.02
2022-11-28T09:11:19.460Z,70.85
2022-11-28T09:13:46.419Z,70.59
2022-11-28T09:16:14.626Z,71.03
2022-11-28T09:18:41.654Z,71.02
2022-11-28T09:21:10.866Z,70.42
2022-11-28T09:23:39.700Z,71.04
2022-11-28T09:26:14.998Z,71.21
2022-11-28T09:28:42.628Z,70.90
2022-11-28T09:31:12.456Z,71.23
2022-11-28T09:33:39.739Z,71.19
2022-11-28T09:36:16.568Z,70.62
2022-11-28T09:38:43.838Z,70.75
2022-11-28T09:41:29.638Z,69.81
2022-11-28T09:44:07.018Z,70.09
2022-11-28T09:46:37.400Z,69.79
2022-11-28T09:49:25.417Z,69.48
2022-11-28T09:52:02.928Z,69.38
2022-11-28T09:54:49.085Z,68.96
2022-11-28T09:57:24.152Z,69.22
2022-11-28T09:59:51.075Z,69.58
2022-11-28T10:03:10.896Z,68.97
2022-11-28T10:05:58.554Z,69.34
2022-11-28T10:08:28.045Z,70.11
2022-11-28T10:11:15.102Z,70.23
2022-11-28T10:14:19.122Z,70.53
2022-11-28T10:17:12.971Z,69.29
2022-11-28T10:19:54.446Z,69.50
2022-11-28T10:22:43.367Z,69.44
2022-11-28T10:25:22.785Z,68.80
2022-11-28T10:27:51.000Z,69.50
2022-11-28T10:30:27.182Z,68.71
2022-11-28T10:33:18.349Z,68.57
2022-11-28T10:35:51.783Z,68.91
2022-11-28T10:38:25.581Z,68.05
2022-11-28T10:41:14.554Z,68.91
2022-11-28T10:44:22.912Z,69.01
2022-11-28T10:47:06.973Z,68.71
2022-11-28T10:50:04.508Z,69.11
2022-11-28T10:52:44.580Z,69.42
2022-11-28T10:55:48.374Z,68.75
2022-11-28T10:58:27.501Z,68.63
2022-11-28T11:00:58.203Z,68.99
2022-11-28T11:03:31.438Z,68.62
2022-11-28T11:05:59.765Z,68.92
2022-11-28T11:08:29.628Z,68.58
2022-11-28T11:11:08.651Z,68.15
2022-11-28T11:13:58.958Z,67.88
2022-11-28T11:16:26.191Z,67.66
2022-11-28T11:18:55.254Z,67.24
2022-11-28T11:21:27.220Z,67.06
2022-11-28T11:24:16.710Z,67.34
2022-11-28T11:26:47.108Z,68.24
2022-11-28T11:29:31.036Z,68.17
2022-11-28T11:32:03.673Z,68.06
2022-11-28T11:34:36.893Z,67.79
2022-11-28T11:37:28.605Z,68.66
2022-11-28T11:39:55.659Z,68.01
2022-11-28T11:42:28.532Z,68.10
2022-11-28T11:44:56.536Z,67.67
2022-11-28T11:47:44.318Z,68.21
2022-11-28T11:50:20.683Z,67.48
2022-11-28T11:53:09.491Z,67.73
2022-11-28T11:55:58.395Z,67.59
2022-11-28T11:58:39.470Z,67.28
2022-11-28T12:01:08.080Z,66.93
2022-11-28T12:04:08.554Z,66.95
2022-11-28T12:06:51.570Z,66.61
2022-11-28T12:09:47.092Z,67.08
2022-11-28T12:12:23.038Z,67.61
2022-11-28T12:14:50.557Z,68.17
2022-11-28T12:17:47.929Z,69.07
2022-11-28T12:20:36.377Z,68.85
2022-11-28T12:23:32.423Z,68.94
2022-11-28T12:26:02.244Z,68.72
2022-11-28T12:28:59.708Z,69.39
2022-11-28T12:32:10.715Z,70.10
2022-11-28T12:34:56.041Z,70.04
2022-11-28T12:37:55.241Z,70.16
2022-11-28T12:40:46.713Z,69.95
2022-11-28T12:43:41.437Z,69.42
2022-11-28T12:46:42.345Z,68.93
2022-11-28T12:49:36.504Z,69.62
2022-11-28T12:52:18.611Z,69.63
2022-11-28T12:54:57.930Z,68.78
2022-11-28T12:57:42.774Z,69.21
2022-11-28T13:00:14.912Z,69.09
2022-11-28T13:02:57.429Z,68.56
2022-11-28T13:05:39.485Z,68.38
2022-11-28T13:08:43.274Z,68.72
2022-11-28T13:11:45.724Z,69.51
2022-11-28T13:14:21.319Z,69.53
2022-11-28T13:16:55.622Z,69.26
2022-11-28T13:19:51.298Z,69.59
2022-11-28T13:22:25.345Z,69.80
2022-11-28T13:25:19.220Z,70.08
2022-11-28T13:27:59.567Z,70.32
2022-11-28T13:30:29.464Z,70.81
2022-11-28T13:33:13.162Z,70.61
2022-11-28T13:35:45.200Z,69.98
2022-11-28T13:38:37.300Z,69.90
2022-11-28T13:42:05.876Z,69.25
2022-11-28T13:44:35.539Z,69.57
2022-11-28T13:47:25.038Z,70.19
2022-11-28T13:49:51.981Z,70.02
2022-11-28T13:52:18.915Z,70.46
2022-11-28T13:54:54.226Z,70.92
2022-11-28T13:57:28.692Z,70.27
2022-11-28T14:00:18.315Z,70.74
2022-11-28T14:03:00.051Z,70.93
2022-11-28T14:05:35.946Z,71.02
2022-11-28T14:08:04.903Z,70.88
2022-11-28T14:11:25.808Z,72.05
2022-11-28T14:14:04.039Z,71.73
2022-11-28T14:16:58.539Z,72.35
2022-11-28T14:19:38.244Z,70.99
2022-11-28T14:22:09.969Z,71.48
2022-11-28T14:24:55.409Z,70.88
2022-11-28T14:27:33.710Z,71.22
2022-11-28T14:30:01.765Z,71.29
2022-11-28T14:32:38.035Z,70.65
2022-11-28T14:35:15.490Z,70.34
2022-11-28T14:37:55.725Z,71.63
2022-11-28T14:40:57.007Z,71.90
2022-11-28T14:43:24.146Z,73.31
2022-11-28T14:45:52.861Z,72.31
2022-11-28T14:48:23.108Z,71.97
2022-11-28T14:51:00.579Z,72.39
2022-11-28T14:53:38.593Z,71.46
2022-11-28T14:56:14.433Z,71.84
2022-11-28T14:58:49.384Z,72.56
2022-11-28T15:01:28.739Z,73.05
2022-11-28T15:04:14.494Z,73.78
2022-11-28T15:06:43.585Z,74.52
2022-11-28T15:09:13.863Z,73.96
2022-11-28T15:12:14.059Z,74.68
2022-11-28T15:14:42.660Z,74.77
2022-11-28T15:17:13.885Z,74.71
2022-11-28T15:19:47.785Z,74.37
2022-11-28T15:22:41.417Z,74.17
2022-11-28T15:25:23.967Z,74.20
2022-11-28T15:27:51.665Z,74.07
2022-11-28T15:30:26.471Z,73.44
2022-11-28T15:32:58.868Z,73.18
2022-11-28T15:35:26.870Z,73.39
2022-11-28T15:37:58.177Z,72.94
2022-11-28T15:40:32.783Z,72.70
2022-11-28T15:43:02.291Z,73.12
2022-11-28T15:45:32.422Z,72.10
2022-11-28T15:47:59.541Z,72.05
2022-11-28T15:50:29.627Z,71.02
2022-11-28T15:53:18.133Z,72.04
2022-11-28T15:55:46.235Z,72.27
2022-11-28T15:58:21.739Z,71.69
2022-11-28T16:00:58.331Z,72.23
2022-11-28T16:03:29.640Z,72.44
2022-11-28T16:05:59.234Z,72.55
2022-11-28T16:08:34.834Z,71.41
2022-11-28T16:11:05.767Z,72.55
2022-11-28T16:13:34.251Z,72.47
2022-11-28T16:16:04.264Z,72.38
2022-11-28T16:18:31.873Z,72.13
2022-11-28T16:21:01.271Z,71.80
2022-11-28T16:23:36.322Z,71.00
2022-11-28T16:26:29.684Z,71.62
2022-11-28T16:29:17.135Z,71.80
2022-11-28T16:31:44.770Z,72.09
2022-11-28T16:34:15.048Z,72.18
2022-11-28T16:36:50.193Z,72.69
2022-11-28T16:39:18.082Z,72.37
2022-11-28T16:42:04.935Z,71.58
2022-11-28T16:44:33.668Z,72.47
2022-11-28T16:47:01.137Z,71.73
2022-11-28T16:49:51.600Z,71.43
2022-11-28T16:52:21.738Z,70.94
2022-11-28T16:54:49.655Z,70.22
2022-11-28T16:57:17.591Z,71.28
2022-11-28T16:59:45.214Z,70.96
2022-11-28T17:02:24.581Z,71.44
2022-11-28T17:04:53.268Z,71.54
2022-11-28T17:07:23.591Z,71.25
2022-11-28T17:09:51.244Z,70.75
2022-11-28T17:12:27.705Z,71.21
2022-11-28T17:14:55.804Z,70.91
2022-11-28T17:17:23.843Z,70.72
2022-11-28T17:19:51.905Z,71.38
2022-11-28T17:22:22.283Z,71.07
2022-11-28T17:24:55.630Z,71.18
2022-11-28T17:27:22.824Z,71.38
2022-11-28T17:29:49.882Z,71.56
2022-11-28T17:32:17.197Z,71.47
2022-11-28T17:34:46.181Z,71.83
2022-11-28T17:37:13.344Z,72.38
2022-11-28T17:40:00.751Z,72.13
2022-11-28T17:42:27.908Z,71.83
2022-11-28T17:44:55.085Z,71.97
2022-11-28T17:47:23.896Z,71.80
2022-11-28T17:49:51.332Z,71.99
2022-11-28T17:52:20.350Z,72.19
2022-11-28T17:54:49.380Z,71.31
2022-11-28T17:57:16.479Z,71.27
2022-11-28T17:59:43.587Z,71.53
2022-11-28T18:02:13.525Z,72.00
2022-11-28T18:04:41.197Z,72.06
2022-11-28T18:07:09.053Z,71.43
2022-11-28T18:09:36.240Z,71.86
2022-11-28T18:12:03.562Z,72.40
2022-11-28T18:14:36.580Z,72.56
2022-11-28T18:17:07.012Z,72.44
2022-11-28T18:19:34.270Z,73.17
2022-11-28T18:22:01.824Z,73.72
2022-11-28T18:24:28.867Z,73.60
2022-11-28T18:26:56.018Z,73.75
2022-11-28T18:29:22.940Z,73.47
2022-11-28T18:31:50.498Z,73.69
2022-11-28T18:34:17.571Z,73.55
2022-11-28T18:36:45.148Z,74.12
2022-11-28T18:39:14.649Z,74.20
2022-11-28T18:41:42.386Z,73.93
2022-11-28T18:44:11.108Z,73.61
2022-11-28T18:46:40.375Z,73.75
2022-11-28T18:49:08.505Z,73.61
2022-11-28T18:51:35.832Z,73.59
2022-11-28T18:54:05.235Z,72.97
2022-11-28T18:56:35.704Z,72.99
2022-11-28T18:59:04.303Z,73.25
2022-11-28T19:01:34.091Z,73.22
2022-11-28T19:04:11.648Z,72.96
2022-11-28T19:06:40.789Z,73.32
2022-11-28T19:09:11.583Z,73.19
2022-11-28T19:11:40.457Z,72.89
2022-11-28T19:14:08.112Z,72.72
2022-11-28T19:16:37.803Z,72.67
2022-11-28T19:19:06.209Z,73.35
2022-11-28T19:21:36.337Z,73.70
2022-11-28T19:24:04.300Z,73.13
2022-11-28T19:26:33.558Z,73.45
2022-11-28T19:29:01.778Z,72.97
2022-11-28T19:31:33.065Z,73.17
2022-11-28T19:34:14.060Z,72.98
2022-11-28T19:36:43.484Z,73.29
2022-11-28T19:39:22.361Z,72.87
2022-11-28T19:41:51.423Z,73.11
2022-11-28T19:44:21.209Z,72.39
2022-11-28T19:46:50.630Z,72.58
2022-11-28T19:49:20.162Z,72.48
2022-11-28T19:51:49.455Z,72.81
2022-11-28T19:54:21.963Z,72.66
2022-11-28T19:56:49.529Z,72.89
2022-11-28T19:59:17.231Z,73.67
2022-11-28T20:01:44.402Z,73.11
2022-11-28T20:04:12.364Z,73.52
2022-11-28T20:06:39.311Z,73.89
2022-11-28T20:09:09.307Z,74.22
2022-11-28T20:11:41.900Z,74.34
2022-11-28T20:14:19.026Z,73.73
2022-11-28T20:16:46.940Z,73.19
2022-11-28T20:19:15.715Z,73.40
2022-11-28T20:21:44.909Z,73.24
2022-11-28T20:24:12.347Z,73.03
2022-11-28T20:26:42.566Z,72.95
2022-11-28T20:29:13.622Z,72.27
2022-11-28T20:31:46.913Z,71.74
2022-11-28T20:34:17.860Z,72.09
2022-11-28T20:36:46.259Z,72.29
2022-11-28T20:39:13.527Z,72.35
2022-11-28T20:41:40.560Z,72.11
2022-11-28T20:44:07.609Z,72.03
2022-11-28T20:46:35.662Z,72.50
2022-11-28T20:49:05.640Z,71.92
2022-11-28T20:51:34.567Z,71.67
2022-11-28T20:54:04.798Z,71.71
2022-11-28T20:56:46.487Z,71.77
2022-11-28T20:59:22.027Z,72.40
2022-11-28T21:01:49.077Z,71.93
2022-11-28T21:04:17.754Z,71.87
2022-11-28T21:06:47.268Z,72.23
2022-11-28T21:09:15.345Z,72.04
2022-11-28T21:11:56.690Z,72.27
2022-11-28T21:14:25.599Z,71.90
2022-11-28T21:16:52.580Z,72.43
2022-11-28T21:19:19.534Z,71.58
2022-11-28T21:21:46.500Z,72.08
2022-11-28T21:24:14.226Z,71.79
2022-11-28T21:26:46.578Z,71.25
2022-11-28T21:29:15.092Z,71.32
2022-11-28T21:31:44.249Z,71.32
2022-11-28T21:34:15.660Z,71.42
2022-11-28T21:36:43.692Z,72.37
2022-11-28T21:39:14.202Z,72.31
2022-11-28T21:41:41.292Z,71.59
2022-11-28T21:44:09.034Z,71.46
2022-11-28T21:46:35.993Z,71.80
2022-11-28T21:49:02.970Z,71.85
2022-11-28T21:51:29.898Z,71.22
2022-11-28T21:54:00.319Z,71.26
2022-11-28T21:56:27.489Z,71.78
2022-11-28T21:58:54.923Z,71.56
2022-11-28T22:01:24.362Z,71.89
2022-11-28T22:03:53.462Z,71.76
2022-11-28T22:06:25.043Z,71.60
2022-11-28T22:08:53.761Z,72.30
2022-11-28T22:11:22.157Z,71.92
2022-11-28T22:13:49.587Z,72.54
2022-11-28T22:16:22.148Z,72.76
2022-11-28T22:18:50.752Z,72.28
2022-11-28T22:24:05.952Z,71.79
2022-11-28T22:26:33.227Z,72.00
2022-11-28T22:29:01.163Z,71.02
2022-11-28T22:31:28.290Z,71.32
2022-11-28T22:33:55.718Z,72.73
2022-11-28T22:36:23.734Z,72.22
2022-11-28T22:38:55.908Z,72.25
2022-11-28T22:41:28.788Z,71.63
2022-11-28T22:44:01.185Z,71.73
2022-11-28T22:46:30.773Z,71.92
2022-11-28T22:49:00.720Z,72.70
2022-11-28T22:51:29.028Z,71.71
2022-11-28T22:53:58.314Z,72.12
2022-11-28T22:56:27.804Z,71.68
2022-11-28T22:58:55.230Z,72.32
2022-11-28T23:01:26.107Z,72.07
2022-11-28T23:03:54.362Z,72.13
2022-11-28T23:06:28.464Z,71.32
2022-11-28T23:08:57.166Z,71.46
2022-11-28T23:11:29.398Z,71.86
2022-11-28T23:13:57.040Z,72.22
2022-11-28T23:16:27.612Z,72.15
2022-11-28T23:18:56.943Z,72.24
2022-11-28T23:21:25.905Z,72.31
2022-11-28T23:23:54.001Z,72.51
2022-11-28T23:26:24.421Z,71.59
2022-11-28T23:28:53.007Z,71.49
2022-11-28T23:31:24.266Z,71.98
2022-11-28T23:33:52.069Z,71.97
2022-11-28T23:36:21.928Z,72.24
2022-11-28T23:38:51.968Z,72.37
2022-11-28T23:41:19.278Z,71.94
2022-11-28T23:43:46.876Z,71.91
2022-11-28T23:46:15.955Z,72.65
2022-11-28T23:48:46.284Z,71.65
2022-11-28T23:51:14.582Z,72.31
2022-11-28T23:53:42.234Z,72.43
2022-11-28T23:56:12.965Z,72.10
2022-11-28T23:58:40.457Z,72.01
